• Join FlightAware (Why Join?)
  • Login
  • US Flag 
09:57PM EDT


 

Airport Tracker/Info


-or-


 

Live Flight TrackerFlight Track Log ✈ DAL2082 ✈ 10-May-2013 ✈ KRSW - KATL

Flight Track Log - Related Links

Times and Time Zones

All times are in EDT time to prevent confusion due to time zone crossing. See the DAL2082 flight status page for this flight to view local times or setup timezone preferences in your user account.

Time Position Orientation Groundspeed Altitude Reporting Facility
EDT Latitude Longitude Course Direction KTS MPH feet Rate Location/Type
12:26PM 26.5342 -81.8997 336° Northwest 245 282 6,100  Level Miami Center
12:27PM 26.8647 -81.7333 North  Level FlightAware Approximate
12:27PM 26.6089 -81.9144 350° North 229 264 9,500  Level Miami Center
12:28PM 26.9756 -81.7333 North  Level FlightAware Approximate
12:28PM 26.6944 -81.9111 North 253 291 11,500  Level Miami Center
12:29PM 27.0825 -81.7597 340° North  Level FlightAware Approximate
12:29PM 26.7956 -81.8853 13° North 325 374 13,600  Level Miami Center
12:30PM 27.1895 -81.7912 350° North  Level FlightAware Approximate
12:30PM 26.8917 -81.8242 30° Northeast 350 403 16,000  Level Miami Center
12:31PM 27.2940 -81.8303 336° Northwest  Level FlightAware Approximate
12:31PM 26.9919 -81.7656 28° Northeast 372 428 18,000  Level Miami Center
12:32PM 27.3997 -81.8582 336° Northwest  Level FlightAware Approximate
12:32PM 27.1128 -81.7683 359° North 384 442 20,400  Level Miami Center
12:33PM 27.2161 -81.8008 344° North 390 449 22,400 1,860 Climbing Miami Center
12:34PM 27.3319 -81.8314 347° North 416 479 24,200 1,740 Climbing Miami Center
12:35PM 27.4622 -81.8650 347° North 437 503 25,900 1,500 Climbing Miami Center
12:36PM 27.5861 -81.9008 346° North 442 509 27,300 660 Climbing Miami Center
12:39PM 27.8525 -81.9747 346° North 462 532 28,000 180 Climbing Jacksonville Center
12:40PM 27.9758 -82.0136 344° North 462 532 28,000  Level Jacksonville Center
12:41PM 28.0828 -82.0950 326° Northwest 455 524 28,000  Level Jacksonville Center
12:42PM 28.1731 -82.1814 320° Northwest 462 532 28,000 -600 Level Jacksonville Center
12:43PM 28.2736 -82.2728 321° Northwest 462 532 26,900 -1,020 Descending Jacksonville Center
12:44PM 28.3722 -82.3594 322° Northwest 462 532 26,000 -480 Descending Jacksonville Center
12:45PM 28.4725 -82.4486 322° Northwest 457 526 26,000  Level Jacksonville Center
12:46PM 28.5731 -82.5381 322° Northwest 457 526 26,000  Level Jacksonville Center
12:47PM 28.6692 -82.6275 321° Northwest 452 520 26,000  Level Jacksonville Center
12:48PM 28.7781 -82.7244 322° Northwest 452 520 26,000  Level Jacksonville Center
12:49PM 28.8761 -82.8144 321° Northwest 452 520 26,000  Level Jacksonville Center
12:50PM 28.9742 -82.9044 321° Northwest 452 520 26,000  Level Jacksonville Center
12:51PM 29.0722 -82.9947 321° Northwest 452 520 26,000  Level Jacksonville Center
12:52PM 29.1703 -83.0853 321° Northwest 452 520 26,000  Level Jacksonville Center
12:53PM 29.2661 -83.1733 321° Northwest 452 520 26,000  Level Jacksonville Center
12:54PM 29.3558 -83.2547 322° Northwest 440 506 26,000  Level Jacksonville Center
12:55PM 29.4431 -83.3339 322° Northwest 421 484 26,000  Level Jacksonville Center
12:56PM 29.5325 -83.4200 320° Northwest 415 478 26,000  Level Jacksonville Center
12:57PM 29.6219 -83.5017 322° Northwest 415 478 26,000  Level Jacksonville Center
12:58PM 29.7133 -83.5836 322° Northwest 415 478 26,000  Level Jacksonville Center
12:59PM 29.8028 -83.6681 321° Northwest 420 483 26,000  Level Jacksonville Center
01:00PM 29.8942 -83.7528 321° Northwest 420 483 26,000  Level Jacksonville Center
01:01PM 29.9853 -83.8375 321° Northwest 420 483 26,000  Level Jacksonville Center
01:02PM 30.0786 -83.9247 321° Northwest 420 483 26,000  Level Jacksonville Center
01:03PM 30.1719 -84.0122 321° Northwest 425 489 26,000  Level Jacksonville Center
01:04PM 30.2650 -84.0975 322° Northwest 425 489 26,000  Level Jacksonville Center
01:05PM 30.3394 -84.1706 320° Northwest 425 489 26,000  Level Jacksonville Center
01:06PM 30.4450 -84.2683 321° Northwest 431 496 26,000  Level Jacksonville Center
01:07PM 30.5400 -84.3567 321° Northwest 436 502 26,000  Level Jacksonville Center
01:08PM 30.6686 -84.4142 339° North 436 502 26,000  Level Jacksonville Center
01:09PM 30.7914 -84.4500 346° North 445 512 26,000  Level Jacksonville Center
01:10PM 30.9100 -84.4906 344° North 445 512 26,000  Level Jacksonville Center
01:11PM 31.0306 -84.5292 345° North 440 506 26,000  Level Jacksonville Center
01:12PM 31.1533 -84.5700 344° North 440 506 26,000 -300 Level Jacksonville Center
01:13PM 31.2572 -84.6058 344° North 440 506 25,500 -660 Descending Jacksonville Center
01:15PM 31.5383 -84.6992 344° North 442 509 24,000 -480 Descending Atlanta Center
01:16PM 31.6736 -84.7442 344° North 448 516 24,000  Level Atlanta Center
01:17PM 31.7967 -84.7842 345° North 453 521 24,000  Level Atlanta Center
01:18PM 31.9172 -84.8267 343° North 453 521 24,000  Level Atlanta Center
01:19PM 32.0361 -84.8669 344° North 453 521 24,000  Level Atlanta Center
01:20PM 32.1547 -84.9072 344° North 448 516 24,000  Level Atlanta Center
01:21PM 32.2797 -84.9428 346° North 448 516 24,000  Level Atlanta Center
01:22PM 32.3983 -84.9836 344° North 448 516 24,000  Level Atlanta Center
01:23PM 32.5336 -85.0292 344° North 458 527 24,000 -660 Level Atlanta Center
01:24PM 32.6442 -85.0675 344° North 458 527 22,700 -1,320 Descending Atlanta Center
01:25PM 32.7586 -85.1033 345° North 446 513 21,400 -1,380 Descending Atlanta Center
01:26PM 32.8794 -85.1272 351° North 438 504 20,000 -1,920 Descending Atlanta Center
01:27PM 32.9986 -85.0914 14° North 427 491 17,600 -2,220 Descending Atlanta Center
01:28PM 33.1033 -85.0556 16° North 427 491 15,600 -1,800 Descending Atlanta Center
01:29PM 33.2125 -84.9947 25° Northeast 427 491 14,000 -900 Descending Atlanta Center
01:30PM 33.2842 -84.8986 48° Northeast 404 465 13,800 -780 Descending Atlanta Center
01:31PM 33.3578 -84.7997 48° Northeast 391 450 12,500 -900 Descending Atlanta Center
01:32PM 33.4356 -84.7183 41° Northeast 375 432 12,000 -300 Descending Atlanta Center
01:33PM 33.5297 -84.6692 24° Northeast 366 421 12,000  Level Atlanta Center
01:34PM 33.6114 -84.6275 23° Northeast 333 383 12,000  Level Atlanta Center
01:35PM 33.6700 -84.5581 45° Northeast 268 308 12,000 -600 Level Atlanta Center
01:36PM 33.6933 -84.4683 73° East 263 303 10,800 -1,380 Descending Atlanta Center
01:37PM 33.7167 -84.3667 75° East 266 306 9,100 -1,620 Descending Atlanta TRACON
01:38PM 33.7333 -84.2833 76° East 247 284 7,300 -1,500 Descending Atlanta TRACON
01:39PM 33.7333 -84.2000 90° East 247 284 6,100 -960 Descending Atlanta TRACON
01:40PM 33.7333 -84.1333 90° East 231 266 5,500 -600 Descending Atlanta TRACON
01:41PM 33.6833 -84.1333 180° South 185 213 4,900 -600 Descending Atlanta TRACON
01:42PM 33.6667 -84.2000 253° West 191 220 4,300 -600 Descending Atlanta TRACON